sensor_id;sensor_type;location;lat;lon;timestamp;P1;durP1;ratioP1;P2;durP2;ratioP2
7110;SDS011;3597;42.650;23.386;2023-05-17T00:01:30;1.80;;;1.43;;
7110;SDS011;3597;42.650;23.386;2023-05-17T00:03:55;1.77;;;1.50;;
7110;SDS011;3597;42.650;23.386;2023-05-17T00:06:21;1.70;;;1.60;;
7110;SDS011;3597;42.650;23.386;2023-05-17T00:08:46;1.60;;;1.60;;
7110;SDS011;3597;42.650;23.386;2023-05-17T00:11:11;1.33;;;1.33;;
7110;SDS011;3597;42.650;23.386;2023-05-17T00:13:37;1.27;;;1.27;;
7110;SDS011;3597;42.650;23.386;2023-05-17T00:16:03;1.57;;;1.57;;
7110;SDS011;3597;42.650;23.386;2023-05-17T00:18:29;1.50;;;1.50;;
7110;SDS011;3597;42.650;23.386;2023-05-17T00:20:55;1.63;;;1.63;;
7110;SDS011;3597;42.650;23.386;2023-05-17T00:23:20;1.73;;;1.67;;
7110;SDS011;3597;42.650;23.386;2023-05-17T00:25:45;1.40;;;1.40;;
7110;SDS011;3597;42.650;23.386;2023-05-17T00:28:11;1.40;;;1.30;;
7110;SDS011;3597;42.650;23.386;2023-05-17T00:30:36;1.60;;;1.50;;
7110;SDS011;3597;42.650;23.386;2023-05-17T00:33:02;1.60;;;1.50;;
7110;SDS011;3597;42.650;23.386;2023-05-17T00:35:28;1.57;;;1.33;;
7110;SDS011;3597;42.650;23.386;2023-05-17T00:37:53;1.60;;;1.50;;
7110;SDS011;3597;42.650;23.386;2023-05-17T00:40:19;1.40;;;1.40;;
7110;SDS011;3597;42.650;23.386;2023-05-17T00:42:44;1.83;;;1.70;;
7110;SDS011;3597;42.650;23.386;2023-05-17T00:45:10;1.33;;;1.33;;
7110;SDS011;3597;42.650;23.386;2023-05-17T00:47:35;1.40;;;1.40;;
7110;SDS011;3597;42.650;23.386;2023-05-17T00:50:01;1.57;;;1.43;;
7110;SDS011;3597;42.650;23.386;2023-05-17T00:52:26;1.43;;;1.43;;
7110;SDS011;3597;42.650;23.386;2023-05-17T00:54:52;2.30;;;1.43;;
7110;SDS011;3597;42.650;23.386;2023-05-17T00:57:17;1.50;;;1.50;;
7110;SDS011;3597;42.650;23.386;2023-05-17T00:59:43;1.53;;;1.53;;
7110;SDS011;3597;42.650;23.386;2023-05-17T01:02:09;1.37;;;1.37;;
7110;SDS011;3597;42.650;23.386;2023-05-17T01:04:36;1.80;;;1.30;;
7110;SDS011;3597;42.650;23.386;2023-05-17T01:07:01;1.60;;;1.50;;
7110;SDS011;3597;42.650;23.386;2023-05-17T01:09:27;1.37;;;1.37;;
7110;SDS011;3597;42.650;23.386;2023-05-17T01:12:01;1.40;;;1.40;;
7110;SDS011;3597;42.650;23.386;2023-05-17T01:14:54;1.57;;;1.47;;
7110;SDS011;3597;42.650;23.386;2023-05-17T01:23:01;1.57;;;1.57;;
7110;SDS011;3597;42.650;23.386;2023-05-17T01:28:23;1.60;;;1.50;;
7110;SDS011;3597;42.650;23.386;2023-05-17T01:30:50;1.43;;;1.43;;
7110;SDS011;3597;42.650;23.386;2023-05-17T01:33:19;1.90;;;1.80;;
7110;SDS011;3597;42.650;23.386;2023-05-17T01:35:44;1.40;;;1.40;;
7110;SDS011;3597;42.650;23.386;2023-05-17T01:38:10;1.50;;;1.50;;
7110;SDS011;3597;42.650;23.386;2023-05-17T01:40:35;2.07;;;1.87;;
7110;SDS011;3597;42.650;23.386;2023-05-17T01:43:06;3.37;;;1.87;;
7110;SDS011;3597;42.650;23.386;2023-05-17T01:45:40;1.63;;;1.63;;
7110;SDS011;3597;42.650;23.386;2023-05-17T01:50:44;1.20;;;1.20;;
7110;SDS011;3597;42.650;23.386;2023-05-17T01:53:20;1.33;;;1.33;;
7110;SDS011;3597;42.650;23.386;2023-05-17T01:56:13;1.43;;;1.33;;
7110;SDS011;3597;42.650;23.386;2023-05-17T01:58:47;1.70;;;1.67;;
7110;SDS011;3597;42.650;23.386;2023-05-17T02:01:16;1.67;;;1.60;;
7110;SDS011;3597;42.650;23.386;2023-05-17T02:03:42;1.70;;;1.70;;
7110;SDS011;3597;42.650;23.386;2023-05-17T02:06:08;1.87;;;1.87;;
7110;SDS011;3597;42.650;23.386;2023-05-17T02:08:33;2.00;;;2.00;;
7110;SDS011;3597;42.650;23.386;2023-05-17T02:10:58;1.63;;;1.63;;
7110;SDS011;3597;42.650;23.386;2023-05-17T02:13:24;2.60;;;2.40;;
7110;SDS011;3597;42.650;23.386;2023-05-17T02:15:49;2.13;;;2.00;;
7110;SDS011;3597;42.650;23.386;2023-05-17T02:18:15;1.87;;;1.77;;
7110;SDS011;3597;42.650;23.386;2023-05-17T02:20:40;2.13;;;2.13;;
7110;SDS011;3597;42.650;23.386;2023-05-17T02:23:06;2.13;;;2.10;;
7110;SDS011;3597;42.650;23.386;2023-05-17T02:25:31;3.40;;;2.00;;
7110;SDS011;3597;42.650;23.386;2023-05-17T02:27:56;2.10;;;2.10;;
7110;SDS011;3597;42.650;23.386;2023-05-17T02:30:22;2.30;;;2.20;;
7110;SDS011;3597;42.650;23.386;2023-05-17T02:32:47;2.70;;;2.60;;
7110;SDS011;3597;42.650;23.386;2023-05-17T02:35:12;2.10;;;2.03;;
7110;SDS011;3597;42.650;23.386;2023-05-17T02:37:38;2.20;;;1.80;;
7110;SDS011;3597;42.650;23.386;2023-05-17T02:40:04;2.43;;;2.33;;
7110;SDS011;3597;42.650;23.386;2023-05-17T02:42:33;2.60;;;2.40;;
7110;SDS011;3597;42.650;23.386;2023-05-17T02:44:59;2.33;;;2.23;;
7110;SDS011;3597;42.650;23.386;2023-05-17T02:47:24;3.83;;;2.00;;
7110;SDS011;3597;42.650;23.386;2023-05-17T02:49:50;2.43;;;2.17;;
7110;SDS011;3597;42.650;23.386;2023-05-17T02:52:15;2.03;;;2.03;;
7110;SDS011;3597;42.650;23.386;2023-05-17T02:54:40;2.30;;;2.20;;
7110;SDS011;3597;42.650;23.386;2023-05-17T02:57:09;2.30;;;2.10;;
7110;SDS011;3597;42.650;23.386;2023-05-17T02:59:34;2.53;;;2.40;;
7110;SDS011;3597;42.650;23.386;2023-05-17T03:02:00;2.50;;;2.30;;
7110;SDS011;3597;42.650;23.386;2023-05-17T03:04:25;2.13;;;2.07;;
7110;SDS011;3597;42.650;23.386;2023-05-17T03:06:50;2.83;;;2.63;;
7110;SDS011;3597;42.650;23.386;2023-05-17T03:09:16;2.33;;;2.33;;
7110;SDS011;3597;42.650;23.386;2023-05-17T03:11:41;2.40;;;2.30;;
7110;SDS011;3597;42.650;23.386;2023-05-17T03:14:07;3.00;;;2.90;;
7110;SDS011;3597;42.650;23.386;2023-05-17T03:16:32;2.10;;;2.10;;
7110;SDS011;3597;42.650;23.386;2023-05-17T03:18:58;2.03;;;2.03;;
7110;SDS011;3597;42.650;23.386;2023-05-17T03:21:23;2.33;;;2.23;;
7110;SDS011;3597;42.650;23.386;2023-05-17T03:23:48;2.73;;;2.53;;
7110;SDS011;3597;42.650;23.386;2023-05-17T03:26:14;3.13;;;2.93;;
7110;SDS011;3597;42.650;23.386;2023-05-17T03:28:39;3.13;;;2.93;;
7110;SDS011;3597;42.650;23.386;2023-05-17T03:31:04;2.23;;;2.20;;
7110;SDS011;3597;42.650;23.386;2023-05-17T03:33:30;2.43;;;2.40;;
7110;SDS011;3597;42.650;23.386;2023-05-17T03:35:56;2.90;;;2.70;;
7110;SDS011;3597;42.650;23.386;2023-05-17T03:38:21;2.70;;;2.43;;
7110;SDS011;3597;42.650;23.386;2023-05-17T03:40:47;2.27;;;2.23;;
7110;SDS011;3597;42.650;23.386;2023-05-17T03:43:12;2.23;;;2.17;;
7110;SDS011;3597;42.650;23.386;2023-05-17T03:45:38;2.07;;;2.00;;
7110;SDS011;3597;42.650;23.386;2023-05-17T03:48:03;3.47;;;3.27;;
7110;SDS011;3597;42.650;23.386;2023-05-17T03:50:29;2.10;;;2.10;;
7110;SDS011;3597;42.650;23.386;2023-05-17T03:52:56;2.27;;;2.17;;
7110;SDS011;3597;42.650;23.386;2023-05-17T03:55:22;2.53;;;2.43;;
7110;SDS011;3597;42.650;23.386;2023-05-17T03:57:48;1.93;;;1.93;;
7110;SDS011;3597;42.650;23.386;2023-05-17T04:00:13;2.90;;;2.80;;
7110;SDS011;3597;42.650;23.386;2023-05-17T04:02:45;2.63;;;2.53;;
7110;SDS011;3597;42.650;23.386;2023-05-17T04:05:10;2.80;;;2.70;;
7110;SDS011;3597;42.650;23.386;2023-05-17T04:07:37;2.50;;;2.50;;
7110;SDS011;3597;42.650;23.386;2023-05-17T04:10:02;2.77;;;2.67;;
7110;SDS011;3597;42.650;23.386;2023-05-17T04:12:28;2.83;;;2.70;;
7110;SDS011;3597;42.650;23.386;2023-05-17T04:14:53;3.63;;;3.43;;
7110;SDS011;3597;42.650;23.386;2023-05-17T04:17:19;3.13;;;3.03;;
7110;SDS011;3597;42.650;23.386;2023-05-17T04:19:44;3.13;;;3.03;;
7110;SDS011;3597;42.650;23.386;2023-05-17T04:22:10;2.83;;;2.73;;
7110;SDS011;3597;42.650;23.386;2023-05-17T04:24:35;3.17;;;3.00;;
7110;SDS011;3597;42.650;23.386;2023-05-17T04:27:00;2.90;;;2.90;;
7110;SDS011;3597;42.650;23.386;2023-05-17T04:29:29;3.07;;;2.97;;
7110;SDS011;3597;42.650;23.386;2023-05-17T04:31:54;3.07;;;2.97;;
7110;SDS011;3597;42.650;23.386;2023-05-17T04:34:19;2.93;;;2.83;;
7110;SDS011;3597;42.650;23.386;2023-05-17T04:36:47;3.20;;;3.10;;
7110;SDS011;3597;42.650;23.386;2023-05-17T04:39:12;2.87;;;2.77;;
7110;SDS011;3597;42.650;23.386;2023-05-17T04:41:38;3.50;;;3.20;;
7110;SDS011;3597;42.650;23.386;2023-05-17T04:44:04;3.57;;;3.27;;
7110;SDS011;3597;42.650;23.386;2023-05-17T04:46:30;3.90;;;3.70;;
7110;SDS011;3597;42.650;23.386;2023-05-17T04:48:56;3.37;;;3.17;;
7110;SDS011;3597;42.650;23.386;2023-05-17T04:51:22;3.43;;;3.23;;
7110;SDS011;3597;42.650;23.386;2023-05-17T04:53:47;2.83;;;2.63;;
7110;SDS011;3597;42.650;23.386;2023-05-17T04:56:12;3.20;;;3.10;;
7110;SDS011;3597;42.650;23.386;2023-05-17T04:58:38;3.67;;;3.37;;
7110;SDS011;3597;42.650;23.386;2023-05-17T05:01:04;3.17;;;3.07;;
7110;SDS011;3597;42.650;23.386;2023-05-17T05:03:29;4.13;;;3.23;;
7110;SDS011;3597;42.650;23.386;2023-05-17T05:05:55;3.43;;;3.23;;
7110;SDS011;3597;42.650;23.386;2023-05-17T05:08:20;4.07;;;3.87;;
7110;SDS011;3597;42.650;23.386;2023-05-17T05:10:45;3.67;;;3.57;;
7110;SDS011;3597;42.650;23.386;2023-05-17T05:13:11;3.33;;;3.13;;
7110;SDS011;3597;42.650;23.386;2023-05-17T05:15:36;3.13;;;3.03;;
7110;SDS011;3597;42.650;23.386;2023-05-17T05:18:02;3.60;;;3.40;;
7110;SDS011;3597;42.650;23.386;2023-05-17T05:20:27;3.40;;;3.30;;
7110;SDS011;3597;42.650;23.386;2023-05-17T05:22:53;2.93;;;2.80;;
7110;SDS011;3597;42.650;23.386;2023-05-17T05:25:18;3.50;;;3.40;;
7110;SDS011;3597;42.650;23.386;2023-05-17T05:27:43;3.70;;;3.60;;
7110;SDS011;3597;42.650;23.386;2023-05-17T05:30:09;3.50;;;3.30;;
7110;SDS011;3597;42.650;23.386;2023-05-17T05:32:35;2.80;;;2.80;;
7110;SDS011;3597;42.650;23.386;2023-05-17T05:35:02;4.23;;;3.87;;
7110;SDS011;3597;42.650;23.386;2023-05-17T05:37:28;3.67;;;3.37;;
7110;SDS011;3597;42.650;23.386;2023-05-17T05:39:53;5.20;;;3.50;;
7110;SDS011;3597;42.650;23.386;2023-05-17T05:42:18;3.07;;;2.97;;
7110;SDS011;3597;42.650;23.386;2023-05-17T05:44:44;2.90;;;2.80;;
7110;SDS011;3597;42.650;23.386;2023-05-17T05:47:09;2.70;;;2.60;;
7110;SDS011;3597;42.650;23.386;2023-05-17T05:49:35;3.37;;;3.17;;
7110;SDS011;3597;42.650;23.386;2023-05-17T05:52:00;2.40;;;2.40;;
7110;SDS011;3597;42.650;23.386;2023-05-17T05:54:25;2.93;;;2.83;;
7110;SDS011;3597;42.650;23.386;2023-05-17T05:56:51;2.40;;;2.37;;
7110;SDS011;3597;42.650;23.386;2023-05-17T05:59:16;3.10;;;3.00;;
7110;SDS011;3597;42.650;23.386;2023-05-17T06:01:41;3.00;;;2.90;;
7110;SDS011;3597;42.650;23.386;2023-05-17T06:04:07;3.20;;;3.13;;
7110;SDS011;3597;42.650;23.386;2023-05-17T06:06:33;2.97;;;2.87;;
7110;SDS011;3597;42.650;23.386;2023-05-17T06:08:59;2.80;;;2.70;;
7110;SDS011;3597;42.650;23.386;2023-05-17T06:11:24;2.97;;;2.77;;
7110;SDS011;3597;42.650;23.386;2023-05-17T06:13:50;2.73;;;2.63;;
7110;SDS011;3597;42.650;23.386;2023-05-17T06:16:15;3.67;;;3.17;;
7110;SDS011;3597;42.650;23.386;2023-05-17T06:18:41;2.30;;;2.20;;
7110;SDS011;3597;42.650;23.386;2023-05-17T06:21:06;2.67;;;2.57;;
7110;SDS011;3597;42.650;23.386;2023-05-17T06:23:31;3.97;;;2.13;;
7110;SDS011;3597;42.650;23.386;2023-05-17T06:25:57;2.50;;;2.20;;
7110;SDS011;3597;42.650;23.386;2023-05-17T06:28:22;2.40;;;2.23;;
7110;SDS011;3597;42.650;23.386;2023-05-17T06:30:47;2.07;;;2.03;;
7110;SDS011;3597;42.650;23.386;2023-05-17T06:33:13;2.73;;;2.63;;
7110;SDS011;3597;42.650;23.386;2023-05-17T06:35:38;3.07;;;2.97;;
7110;SDS011;3597;42.650;23.386;2023-05-17T06:38:03;3.70;;;3.50;;
7110;SDS011;3597;42.650;23.386;2023-05-17T06:40:29;3.47;;;3.37;;
7110;SDS011;3597;42.650;23.386;2023-05-17T06:42:55;3.23;;;3.20;;
7110;SDS011;3597;42.650;23.386;2023-05-17T06:45:20;3.60;;;3.50;;
7110;SDS011;3597;42.650;23.386;2023-05-17T06:47:46;3.20;;;3.10;;
7110;SDS011;3597;42.650;23.386;2023-05-17T06:50:11;3.30;;;3.10;;
7110;SDS011;3597;42.650;23.386;2023-05-17T06:52:36;3.53;;;3.33;;
7110;SDS011;3597;42.650;23.386;2023-05-17T06:55:02;3.33;;;2.70;;
7110;SDS011;3597;42.650;23.386;2023-05-17T06:57:27;3.03;;;2.83;;
7110;SDS011;3597;42.650;23.386;2023-05-17T06:59:53;3.23;;;2.90;;
7110;SDS011;3597;42.650;23.386;2023-05-17T07:02:18;2.70;;;2.60;;
7110;SDS011;3597;42.650;23.386;2023-05-17T07:04:44;3.00;;;2.90;;
7110;SDS011;3597;42.650;23.386;2023-05-17T07:07:09;6.47;;;2.90;;
7110;SDS011;3597;42.650;23.386;2023-05-17T07:09:35;3.17;;;3.00;;
7110;SDS011;3597;42.650;23.386;2023-05-17T07:12:01;2.83;;;2.63;;
7110;SDS011;3597;42.650;23.386;2023-05-17T07:14:26;2.87;;;2.77;;
7110;SDS011;3597;42.650;23.386;2023-05-17T07:16:52;2.97;;;2.73;;
7110;SDS011;3597;42.650;23.386;2023-05-17T07:19:17;3.10;;;3.00;;
7110;SDS011;3597;42.650;23.386;2023-05-17T07:21:42;2.33;;;2.30;;
7110;SDS011;3597;42.650;23.386;2023-05-17T07:24:08;2.53;;;2.53;;
7110;SDS011;3597;42.650;23.386;2023-05-17T07:26:34;3.00;;;2.90;;
7110;SDS011;3597;42.650;23.386;2023-05-17T07:28:59;2.67;;;2.57;;
7110;SDS011;3597;42.650;23.386;2023-05-17T07:31:24;2.90;;;2.80;;
7110;SDS011;3597;42.650;23.386;2023-05-17T07:33:51;3.03;;;2.47;;
7110;SDS011;3597;42.650;23.386;2023-05-17T07:36:16;3.10;;;3.00;;
7110;SDS011;3597;42.650;23.386;2023-05-17T07:38:42;2.63;;;2.53;;
7110;SDS011;3597;42.650;23.386;2023-05-17T07:41:07;2.23;;;2.23;;
7110;SDS011;3597;42.650;23.386;2023-05-17T07:43:35;2.73;;;2.67;;
7110;SDS011;3597;42.650;23.386;2023-05-17T07:46:01;2.70;;;2.60;;
7110;SDS011;3597;42.650;23.386;2023-05-17T07:48:26;2.73;;;2.53;;
7110;SDS011;3597;42.650;23.386;2023-05-17T07:50:52;2.97;;;2.27;;
7110;SDS011;3597;42.650;23.386;2023-05-17T07:53:18;3.30;;;3.10;;
7110;SDS011;3597;42.650;23.386;2023-05-17T07:55:44;3.87;;;2.90;;
7110;SDS011;3597;42.650;23.386;2023-05-17T07:58:09;2.43;;;2.43;;
7110;SDS011;3597;42.650;23.386;2023-05-17T08:00:35;2.60;;;2.50;;
7110;SDS011;3597;42.650;23.386;2023-05-17T08:03:01;2.70;;;2.60;;
7110;SDS011;3597;42.650;23.386;2023-05-17T08:05:27;2.70;;;2.67;;
7110;SDS011;3597;42.650;23.386;2023-05-17T08:07:52;2.00;;;2.00;;
7110;SDS011;3597;42.650;23.386;2023-05-17T08:10:17;2.50;;;2.40;;
7110;SDS011;3597;42.650;23.386;2023-05-17T08:12:43;2.80;;;2.77;;
7110;SDS011;3597;42.650;23.386;2023-05-17T08:15:08;3.13;;;2.93;;
7110;SDS011;3597;42.650;23.386;2023-05-17T08:17:34;2.43;;;2.40;;
7110;SDS011;3597;42.650;23.386;2023-05-17T08:19:59;3.10;;;2.60;;
7110;SDS011;3597;42.650;23.386;2023-05-17T08:22:25;2.93;;;2.80;;
7110;SDS011;3597;42.650;23.386;2023-05-17T08:24:51;4.20;;;2.90;;
7110;SDS011;3597;42.650;23.386;2023-05-17T08:27:16;2.90;;;2.70;;
7110;SDS011;3597;42.650;23.386;2023-05-17T08:29:42;2.80;;;2.70;;
7110;SDS011;3597;42.650;23.386;2023-05-17T08:32:07;3.10;;;3.00;;
7110;SDS011;3597;42.650;23.386;2023-05-17T08:34:33;2.90;;;2.80;;
7110;SDS011;3597;42.650;23.386;2023-05-17T08:36:58;2.60;;;2.50;;
7110;SDS011;3597;42.650;23.386;2023-05-17T08:39:23;2.57;;;2.47;;
7110;SDS011;3597;42.650;23.386;2023-05-17T08:41:49;2.63;;;2.63;;
7110;SDS011;3597;42.650;23.386;2023-05-17T08:44:15;2.60;;;2.50;;
7110;SDS011;3597;42.650;23.386;2023-05-17T08:46:41;3.07;;;2.97;;
7110;SDS011;3597;42.650;23.386;2023-05-17T08:49:07;3.37;;;3.27;;
7110;SDS011;3597;42.650;23.386;2023-05-17T08:51:36;3.07;;;2.90;;
7110;SDS011;3597;42.650;23.386;2023-05-17T08:54:03;3.30;;;3.20;;
7110;SDS011;3597;42.650;23.386;2023-05-17T08:56:30;3.17;;;2.93;;
7110;SDS011;3597;42.650;23.386;2023-05-17T08:58:56;9.13;;;4.00;;
7110;SDS011;3597;42.650;23.386;2023-05-17T09:01:22;3.90;;;3.60;;
7110;SDS011;3597;42.650;23.386;2023-05-17T09:03:48;4.20;;;3.90;;
7110;SDS011;3597;42.650;23.386;2023-05-17T09:06:15;3.17;;;3.07;;
7110;SDS011;3597;42.650;23.386;2023-05-17T09:08:49;3.20;;;3.00;;
7110;SDS011;3597;42.650;23.386;2023-05-17T09:11:25;4.57;;;3.30;;
7110;SDS011;3597;42.650;23.386;2023-05-17T09:13:51;3.30;;;3.10;;
7110;SDS011;3597;42.650;23.386;2023-05-17T09:16:17;3.20;;;3.00;;
7110;SDS011;3597;42.650;23.386;2023-05-17T09:18:51;2.70;;;2.50;;
7110;SDS011;3597;42.650;23.386;2023-05-17T09:21:18;3.30;;;3.13;;
7110;SDS011;3597;42.650;23.386;2023-05-17T09:23:45;2.73;;;2.63;;
7110;SDS011;3597;42.650;23.386;2023-05-17T09:26:11;2.83;;;2.60;;
7110;SDS011;3597;42.650;23.386;2023-05-17T09:28:38;2.40;;;2.40;;
7110;SDS011;3597;42.650;23.386;2023-05-17T09:31:04;2.63;;;2.53;;
7110;SDS011;3597;42.650;23.386;2023-05-17T09:33:43;3.57;;;3.37;;
7110;SDS011;3597;42.650;23.386;2023-05-17T09:38:41;5.60;;;3.00;;
7110;SDS011;3597;42.650;23.386;2023-05-17T09:41:06;2.73;;;2.63;;
7110;SDS011;3597;42.650;23.386;2023-05-17T09:43:31;3.27;;;3.10;;
7110;SDS011;3597;42.650;23.386;2023-05-17T09:45:57;3.03;;;2.93;;
7110;SDS011;3597;42.650;23.386;2023-05-17T09:48:24;3.07;;;2.87;;
7110;SDS011;3597;42.650;23.386;2023-05-17T09:50:51;3.07;;;2.93;;
7110;SDS011;3597;42.650;23.386;2023-05-17T09:55:48;3.27;;;3.07;;
7110;SDS011;3597;42.650;23.386;2023-05-17T09:58:16;2.47;;;2.47;;
7110;SDS011;3597;42.650;23.386;2023-05-17T10:00:42;3.40;;;2.40;;
7110;SDS011;3597;42.650;23.386;2023-05-17T10:03:07;2.10;;;2.10;;
7110;SDS011;3597;42.650;23.386;2023-05-17T10:05:35;2.33;;;2.33;;
7110;SDS011;3597;42.650;23.386;2023-05-17T10:08:01;2.73;;;2.73;;
7110;SDS011;3597;42.650;23.386;2023-05-17T10:10:28;2.50;;;2.40;;
7110;SDS011;3597;42.650;23.386;2023-05-17T10:12:54;2.80;;;2.70;;
7110;SDS011;3597;42.650;23.386;2023-05-17T10:15:20;2.53;;;2.53;;
7110;SDS011;3597;42.650;23.386;2023-05-17T10:17:46;2.53;;;2.43;;
7110;SDS011;3597;42.650;23.386;2023-05-17T10:20:12;2.20;;;2.20;;
7110;SDS011;3597;42.650;23.386;2023-05-17T10:22:38;2.70;;;2.60;;
7110;SDS011;3597;42.650;23.386;2023-05-17T10:25:03;2.53;;;2.43;;
7110;SDS011;3597;42.650;23.386;2023-05-17T10:27:29;2.60;;;2.27;;
7110;SDS011;3597;42.650;23.386;2023-05-17T10:29:55;2.43;;;2.33;;
7110;SDS011;3597;42.650;23.386;2023-05-17T10:32:21;2.60;;;2.43;;
7110;SDS011;3597;42.650;23.386;2023-05-17T10:34:50;2.57;;;2.57;;
7110;SDS011;3597;42.650;23.386;2023-05-17T10:37:16;2.90;;;2.80;;
7110;SDS011;3597;42.650;23.386;2023-05-17T10:39:43;2.23;;;2.23;;
7110;SDS011;3597;42.650;23.386;2023-05-17T10:42:11;2.60;;;2.60;;
7110;SDS011;3597;42.650;23.386;2023-05-17T10:44:37;2.27;;;2.27;;
7110;SDS011;3597;42.650;23.386;2023-05-17T10:47:02;2.40;;;2.40;;
7110;SDS011;3597;42.650;23.386;2023-05-17T10:49:29;2.33;;;2.23;;
7110;SDS011;3597;42.650;23.386;2023-05-17T10:51:56;2.00;;;2.00;;
7110;SDS011;3597;42.650;23.386;2023-05-17T10:54:41;2.40;;;2.40;;
7110;SDS011;3597;42.650;23.386;2023-05-17T10:57:09;2.63;;;2.47;;
7110;SDS011;3597;42.650;23.386;2023-05-17T11:00:00;2.50;;;2.40;;
7110;SDS011;3597;42.650;23.386;2023-05-17T11:02:27;2.60;;;2.40;;
7110;SDS011;3597;42.650;23.386;2023-05-17T11:04:53;2.70;;;2.60;;
7110;SDS011;3597;42.650;23.386;2023-05-17T11:07:20;3.00;;;2.90;;
7110;SDS011;3597;42.650;23.386;2023-05-17T11:10:01;3.00;;;2.90;;
7110;SDS011;3597;42.650;23.386;2023-05-17T11:15:07;3.17;;;3.03;;
7110;SDS011;3597;42.650;23.386;2023-05-17T11:22:43;3.30;;;3.10;;
7110;SDS011;3597;42.650;23.386;2023-05-17T11:25:14;3.43;;;3.33;;
7110;SDS011;3597;42.650;23.386;2023-05-17T11:27:44;2.60;;;2.60;;
7110;SDS011;3597;42.650;23.386;2023-05-17T11:30:26;3.27;;;3.17;;
7110;SDS011;3597;42.650;23.386;2023-05-17T11:32:53;2.13;;;2.13;;
7110;SDS011;3597;42.650;23.386;2023-05-17T11:35:23;3.00;;;2.80;;
7110;SDS011;3597;42.650;23.386;2023-05-17T11:37:51;2.80;;;2.77;;
7110;SDS011;3597;42.650;23.386;2023-05-17T11:40:24;5.43;;;3.03;;
7110;SDS011;3597;42.650;23.386;2023-05-17T11:43:08;8.57;;;3.00;;
7110;SDS011;3597;42.650;23.386;2023-05-17T11:45:54;2.57;;;2.47;;
7110;SDS011;3597;42.650;23.386;2023-05-17T11:48:28;2.80;;;2.57;;
7110;SDS011;3597;42.650;23.386;2023-05-17T11:50:55;2.13;;;2.13;;
7110;SDS011;3597;42.650;23.386;2023-05-17T11:53:21;2.83;;;2.83;;
7110;SDS011;3597;42.650;23.386;2023-05-17T11:55:50;2.73;;;2.50;;
7110;SDS011;3597;42.650;23.386;2023-05-17T11:58:20;2.73;;;2.63;;
7110;SDS011;3597;42.650;23.386;2023-05-17T12:00:55;2.20;;;2.20;;
7110;SDS011;3597;42.650;23.386;2023-05-17T12:03:28;3.00;;;2.47;;
7110;SDS011;3597;42.650;23.386;2023-05-17T12:08:26;2.60;;;2.50;;
7110;SDS011;3597;42.650;23.386;2023-05-17T12:10:52;2.20;;;2.10;;
7110;SDS011;3597;42.650;23.386;2023-05-17T12:13:18;2.50;;;2.40;;
7110;SDS011;3597;42.650;23.386;2023-05-17T12:15:45;2.27;;;2.17;;
7110;SDS011;3597;42.650;23.386;2023-05-17T12:18:14;2.27;;;2.27;;
7110;SDS011;3597;42.650;23.386;2023-05-17T12:20:53;2.10;;;2.10;;
7110;SDS011;3597;42.650;23.386;2023-05-17T12:26:21;2.63;;;2.53;;
7110;SDS011;3597;42.650;23.386;2023-05-17T12:34:08;14.30;;;13.47;;
7110;SDS011;3597;42.650;23.386;2023-05-17T12:36:34;15.13;;;14.53;;
7110;SDS011;3597;42.650;23.386;2023-05-17T12:39:01;12.10;;;11.53;;
7110;SDS011;3597;42.650;23.386;2023-05-17T12:41:27;4.30;;;3.83;;
7110;SDS011;3597;42.650;23.386;2023-05-17T12:43:55;2.73;;;2.63;;
7110;SDS011;3597;42.650;23.386;2023-05-17T12:46:21;2.83;;;2.73;;
7110;SDS011;3597;42.650;23.386;2023-05-17T12:48:48;4.97;;;4.87;;
7110;SDS011;3597;42.650;23.386;2023-05-17T12:51:15;2.70;;;2.60;;
7110;SDS011;3597;42.650;23.386;2023-05-17T12:54:03;3.20;;;3.10;;
7110;SDS011;3597;42.650;23.386;2023-05-17T12:56:28;4.27;;;2.27;;
7110;SDS011;3597;42.650;23.386;2023-05-17T12:59:09;2.50;;;2.40;;
7110;SDS011;3597;42.650;23.386;2023-05-17T13:01:36;2.67;;;2.57;;
7110;SDS011;3597;42.650;23.386;2023-05-17T13:04:03;2.70;;;2.53;;
7110;SDS011;3597;42.650;23.386;2023-05-17T13:06:28;1.87;;;1.77;;
7110;SDS011;3597;42.650;23.386;2023-05-17T13:09:00;2.40;;;2.30;;
7110;SDS011;3597;42.650;23.386;2023-05-17T13:11:26;3.57;;;2.33;;
7110;SDS011;3597;42.650;23.386;2023-05-17T13:13:51;2.67;;;2.57;;
7110;SDS011;3597;42.650;23.386;2023-05-17T13:16:17;2.40;;;2.37;;
7110;SDS011;3597;42.650;23.386;2023-05-17T13:18:52;2.60;;;2.50;;
7110;SDS011;3597;42.650;23.386;2023-05-17T13:21:19;2.70;;;2.60;;
7110;SDS011;3597;42.650;23.386;2023-05-17T13:23:45;2.60;;;2.40;;
7110;SDS011;3597;42.650;23.386;2023-05-17T13:26:11;2.57;;;2.37;;
7110;SDS011;3597;42.650;23.386;2023-05-17T13:28:38;2.63;;;2.43;;
7110;SDS011;3597;42.650;23.386;2023-05-17T13:31:04;2.30;;;2.20;;
7110;SDS011;3597;42.650;23.386;2023-05-17T13:33:29;1.93;;;1.93;;
7110;SDS011;3597;42.650;23.386;2023-05-17T13:35:55;4.63;;;2.37;;
7110;SDS011;3597;42.650;23.386;2023-05-17T13:38:20;2.63;;;2.40;;
7110;SDS011;3597;42.650;23.386;2023-05-17T13:40:46;2.50;;;2.30;;
7110;SDS011;3597;42.650;23.386;2023-05-17T13:43:11;2.10;;;2.07;;
7110;SDS011;3597;42.650;23.386;2023-05-17T13:45:36;2.50;;;2.10;;
7110;SDS011;3597;42.650;23.386;2023-05-17T13:48:02;2.53;;;2.40;;
7110;SDS011;3597;42.650;23.386;2023-05-17T13:50:27;2.00;;;2.00;;
7110;SDS011;3597;42.650;23.386;2023-05-17T13:52:53;2.90;;;2.70;;
7110;SDS011;3597;42.650;23.386;2023-05-17T13:55:18;4.23;;;1.60;;
7110;SDS011;3597;42.650;23.386;2023-05-17T13:57:43;2.17;;;2.07;;
7110;SDS011;3597;42.650;23.386;2023-05-17T14:00:10;1.80;;;1.80;;
7110;SDS011;3597;42.650;23.386;2023-05-17T14:02:35;1.93;;;1.83;;
7110;SDS011;3597;42.650;23.386;2023-05-17T14:05:01;2.43;;;2.33;;
7110;SDS011;3597;42.650;23.386;2023-05-17T14:07:26;2.30;;;2.20;;
7110;SDS011;3597;42.650;23.386;2023-05-17T14:09:52;2.50;;;2.50;;
7110;SDS011;3597;42.650;23.386;2023-05-17T14:12:18;2.07;;;2.07;;
7110;SDS011;3597;42.650;23.386;2023-05-17T14:14:43;2.33;;;2.20;;
7110;SDS011;3597;42.650;23.386;2023-05-17T14:17:08;2.00;;;1.90;;
7110;SDS011;3597;42.650;23.386;2023-05-17T14:19:34;2.00;;;2.00;;
7110;SDS011;3597;42.650;23.386;2023-05-17T14:21:59;2.07;;;2.00;;
7110;SDS011;3597;42.650;23.386;2023-05-17T14:24:25;1.77;;;1.77;;
7110;SDS011;3597;42.650;23.386;2023-05-17T14:26:50;1.80;;;1.80;;
7110;SDS011;3597;42.650;23.386;2023-05-17T14:29:15;2.20;;;2.10;;
7110;SDS011;3597;42.650;23.386;2023-05-17T14:31:41;1.93;;;1.93;;
7110;SDS011;3597;42.650;23.386;2023-05-17T14:34:06;2.10;;;2.10;;
7110;SDS011;3597;42.650;23.386;2023-05-17T14:36:31;2.17;;;2.07;;
7110;SDS011;3597;42.650;23.386;2023-05-17T14:38:59;1.63;;;1.63;;
7110;SDS011;3597;42.650;23.386;2023-05-17T14:41:25;1.70;;;1.70;;
7110;SDS011;3597;42.650;23.386;2023-05-17T14:43:51;1.63;;;1.63;;
7110;SDS011;3597;42.650;23.386;2023-05-17T14:46:16;1.63;;;1.63;;
7110;SDS011;3597;42.650;23.386;2023-05-17T14:48:41;1.70;;;1.70;;
7110;SDS011;3597;42.650;23.386;2023-05-17T14:51:07;2.07;;;1.97;;
7110;SDS011;3597;42.650;23.386;2023-05-17T14:53:32;1.80;;;1.70;;
7110;SDS011;3597;42.650;23.386;2023-05-17T14:55:57;1.77;;;1.67;;
7110;SDS011;3597;42.650;23.386;2023-05-17T14:58:23;1.73;;;1.63;;
7110;SDS011;3597;42.650;23.386;2023-05-17T15:00:49;1.93;;;1.87;;
7110;SDS011;3597;42.650;23.386;2023-05-17T15:03:21;4.07;;;1.73;;
7110;SDS011;3597;42.650;23.386;2023-05-17T15:05:51;1.80;;;1.70;;
7110;SDS011;3597;42.650;23.386;2023-05-17T15:08:18;2.20;;;1.60;;
7110;SDS011;3597;42.650;23.386;2023-05-17T15:10:44;1.70;;;1.70;;
7110;SDS011;3597;42.650;23.386;2023-05-17T15:13:09;2.00;;;1.90;;
7110;SDS011;3597;42.650;23.386;2023-05-17T15:15:35;1.87;;;1.87;;
7110;SDS011;3597;42.650;23.386;2023-05-17T15:18:00;2.23;;;2.00;;
7110;SDS011;3597;42.650;23.386;2023-05-17T15:20:26;1.70;;;1.70;;
7110;SDS011;3597;42.650;23.386;2023-05-17T15:22:51;1.80;;;1.80;;
7110;SDS011;3597;42.650;23.386;2023-05-17T15:25:17;2.13;;;2.03;;
7110;SDS011;3597;42.650;23.386;2023-05-17T15:27:42;2.20;;;2.20;;
7110;SDS011;3597;42.650;23.386;2023-05-17T15:30:07;2.40;;;2.40;;
7110;SDS011;3597;42.650;23.386;2023-05-17T15:32:33;2.43;;;2.43;;